createdAt,value
2023-02-14T00:02:42.591Z,50.75
2023-02-14T00:06:14.864Z,50.57
2023-02-14T00:09:42.530Z,50.75
2023-02-14T00:13:04.948Z,50.83
2023-02-14T00:16:26.730Z,50.71
2023-02-14T00:19:48.571Z,50.70
2023-02-14T00:23:10.314Z,50.75
2023-02-14T00:26:32.125Z,50.72
2023-02-14T00:29:54.818Z,50.85
2023-02-14T00:33:16.626Z,50.88
2023-02-14T00:36:39.110Z,50.90
2023-02-14T00:40:00.896Z,50.73
2023-02-14T00:43:22.677Z,50.78
2023-02-14T00:46:44.459Z,50.75
2023-02-14T00:50:06.561Z,50.77
2023-02-14T00:53:28.305Z,50.75
2023-02-14T00:56:50.142Z,50.85
2023-02-14T01:00:13.618Z,50.90
2023-02-14T01:03:36.330Z,50.83
2023-02-14T01:07:00.729Z,50.69
2023-02-14T01:10:22.534Z,50.90
2023-02-14T01:13:45.077Z,50.76
2023-02-14T01:17:06.888Z,50.74
2023-02-14T01:20:28.758Z,50.80
2023-02-14T01:23:55.852Z,50.86
2023-02-14T01:27:17.608Z,50.88
2023-02-14T01:30:39.521Z,50.76
2023-02-14T01:34:01.886Z,50.85
2023-02-14T01:37:23.842Z,50.90
2023-02-14T01:40:45.790Z,51.04
2023-02-14T01:44:33.204Z,50.96
2023-02-14T01:47:56.845Z,50.98
2023-02-14T01:51:20.170Z,51.01
2023-02-14T01:54:47.989Z,50.93
2023-02-14T01:58:14.293Z,51.00
2023-02-14T02:01:36.157Z,50.81
2023-02-14T02:04:57.968Z,51.13
2023-02-14T02:08:20.703Z,51.06
2023-02-14T02:11:43.047Z,50.96
2023-02-14T02:15:06.351Z,51.01
2023-02-14T02:19:18.704Z,51.17
2023-02-14T02:22:57.064Z,51.03
2023-02-14T02:26:37.539Z,50.98
2023-02-14T02:30:25.448Z,51.16
2023-02-14T02:33:48.211Z,51.19
2023-02-14T02:37:41.098Z,51.24
2023-02-14T02:41:23.282Z,51.12
2023-02-14T02:44:55.979Z,51.33
2023-02-14T02:48:20.556Z,51.12
2023-02-14T02:52:01.032Z,51.13
2023-02-14T02:55:54.092Z,51.03
2023-02-14T02:59:20.886Z,51.21
2023-02-14T03:03:11.913Z,51.23
2023-02-14T03:06:34.153Z,51.23
2023-02-14T03:09:58.335Z,51.24
2023-02-14T03:13:58.012Z,51.20
2023-02-14T03:17:28.063Z,51.27
2023-02-14T03:20:52.113Z,51.33
2023-02-14T03:24:16.908Z,51.26
2023-02-14T03:27:46.426Z,51.09
2023-02-14T03:31:08.217Z,51.42
2023-02-14T03:34:36.265Z,51.24
2023-02-14T03:38:07.160Z,51.26
2023-02-14T03:41:33.179Z,51.39
2023-02-14T03:44:56.731Z,51.37
2023-02-14T03:48:22.711Z,51.47
2023-02-14T03:51:49.509Z,51.32
2023-02-14T03:55:12.213Z,51.50
2023-02-14T03:58:39.869Z,51.57
2023-02-14T04:02:09.195Z,51.39
2023-02-14T04:05:31.155Z,51.56
2023-02-14T04:08:53.122Z,51.48
2023-02-14T04:12:18.173Z,51.62
2023-02-14T04:15:41.806Z,51.56
2023-02-14T04:19:22.366Z,51.59
2023-02-14T04:22:46.372Z,51.60
2023-02-14T04:26:08.240Z,51.52
2023-02-14T04:29:29.988Z,51.69
2023-02-14T04:32:51.829Z,51.63
2023-02-14T04:36:14.522Z,51.57
2023-02-14T04:39:36.994Z,51.64
2023-02-14T04:42:58.853Z,51.43
2023-02-14T04:46:20.729Z,51.62
2023-02-14T04:49:42.694Z,51.58
2023-02-14T04:53:04.593Z,51.61
2023-02-14T04:56:28.675Z,51.77
2023-02-14T04:59:50.458Z,51.84
2023-02-14T05:03:12.239Z,51.74
2023-02-14T05:06:34.460Z,51.64
2023-02-14T05:09:56.455Z,51.74
2023-02-14T05:13:18.362Z,51.69
2023-02-14T05:16:40.156Z,51.83
2023-02-14T05:20:08.929Z,51.65
2023-02-14T05:23:30.743Z,51.71
2023-02-14T05:26:52.592Z,51.69
2023-02-14T05:30:15.069Z,51.65
2023-02-14T05:33:37.230Z,51.64
2023-02-14T05:36:59.006Z,51.68
2023-02-14T05:40:20.838Z,51.65
2023-02-14T05:43:42.651Z,51.83
2023-02-14T05:47:04.683Z,51.80
2023-02-14T05:50:26.546Z,51.77
2023-02-14T05:53:48.843Z,51.71
2023-02-14T05:57:10.648Z,51.71
2023-02-14T06:00:32.569Z,51.89
2023-02-14T06:03:54.400Z,51.94
2023-02-14T06:10:52.300Z,51.86
2023-02-14T06:14:14.783Z,51.73
2023-02-14T06:17:38.156Z,51.87
2023-02-14T06:21:00.202Z,51.85
2023-02-14T06:24:22.229Z,51.70
2023-02-14T06:27:44.032Z,51.89
2023-02-14T06:31:05.885Z,51.81
2023-02-14T06:34:27.779Z,51.72
2023-02-14T06:37:49.716Z,51.69
2023-02-14T06:41:11.876Z,51.74
2023-02-14T06:44:33.660Z,51.92
2023-02-14T06:47:55.463Z,51.82
2023-02-14T06:51:17.358Z,51.72
2023-02-14T06:54:39.170Z,51.97
2023-02-14T06:58:00.929Z,51.94
2023-02-14T07:01:23.079Z,51.82
2023-02-14T07:04:45.163Z,51.77
2023-02-14T07:08:08.224Z,51.73
2023-02-14T07:11:29.990Z,51.76
2023-02-14T07:14:51.741Z,51.70
2023-02-14T07:18:13.539Z,51.67
2023-02-14T07:21:35.394Z,51.65
2023-02-14T07:24:57.420Z,51.49
2023-02-14T07:28:19.264Z,51.72
2023-02-14T07:31:43.277Z,51.59
2023-02-14T07:35:05.876Z,51.62
2023-02-14T07:38:30.600Z,51.49
2023-02-14T07:41:52.358Z,51.49
2023-02-14T07:45:22.365Z,51.24
2023-02-14T07:48:44.389Z,51.31
2023-02-14T07:52:07.617Z,51.51
2023-02-14T07:55:29.448Z,51.43
2023-02-14T07:58:57.515Z,51.36
2023-02-14T08:02:22.906Z,51.39
2023-02-14T08:05:44.785Z,51.35
2023-02-14T08:09:07.246Z,51.37
2023-02-14T08:12:47.729Z,51.48
2023-02-14T08:16:11.773Z,51.17
2023-02-14T08:19:34.213Z,51.18
2023-02-14T08:22:56.711Z,51.23
2023-02-14T08:26:18.681Z,51.06
2023-02-14T08:29:40.452Z,51.23
2023-02-14T08:33:03.288Z,51.11
2023-02-14T08:36:25.115Z,51.08
2023-02-14T08:39:47.028Z,50.92
2023-02-14T08:43:08.945Z,50.76
2023-02-14T08:46:31.009Z,50.83
2023-02-14T08:49:54.060Z,50.91
2023-02-14T08:53:16.059Z,50.78
2023-02-14T08:56:38.519Z,50.79
2023-02-14T09:00:03.255Z,50.75
2023-02-14T09:03:27.317Z,50.74
2023-02-14T09:06:49.137Z,50.73
2023-02-14T09:10:11.653Z,50.69
2023-02-14T09:13:33.451Z,50.46
2023-02-14T09:16:55.561Z,50.44
2023-02-14T09:20:17.531Z,50.51
2023-02-14T09:23:39.697Z,50.42
2023-02-14T09:27:01.656Z,50.36
2023-02-14T09:30:23.425Z,50.46
2023-02-14T09:37:35.690Z,50.33
2023-02-14T09:40:59.233Z,50.98
2023-02-14T09:44:29.598Z,53.01
2023-02-14T09:47:54.173Z,52.90
2023-02-14T09:51:23.426Z,52.95
2023-02-14T09:54:50.828Z,52.97
2023-02-14T09:58:21.384Z,52.79
2023-02-14T10:01:49.022Z,52.73
2023-02-14T10:05:15.401Z,52.59
2023-02-14T10:09:03.646Z,52.44
2023-02-14T10:12:32.003Z,52.34
2023-02-14T10:19:53.057Z,53.12
2023-02-14T10:23:39.514Z,52.93
2023-02-14T10:27:28.003Z,52.84
2023-02-14T10:31:22.500Z,52.78
2023-02-14T10:34:49.212Z,52.62
2023-02-14T10:38:24.390Z,52.57
2023-02-14T10:42:08.848Z,52.23
2023-02-14T10:45:42.410Z,52.21
2023-02-14T10:49:34.749Z,52.19
2023-02-14T10:53:14.138Z,51.90
2023-02-14T10:56:37.908Z,51.88
2023-02-14T11:00:06.941Z,51.65
2023-02-14T11:03:28.901Z,51.40
2023-02-14T11:06:51.430Z,51.30
2023-02-14T11:10:14.720Z,51.44
2023-02-14T11:13:38.837Z,51.29
2023-02-14T11:17:01.841Z,51.05
2023-02-14T11:20:30.533Z,51.07
2023-02-14T11:23:52.480Z,50.91
2023-02-14T11:27:14.250Z,50.84
2023-02-14T11:30:41.125Z,50.75
2023-02-14T11:34:05.830Z,50.53
2023-02-14T11:37:37.785Z,50.46
2023-02-14T11:41:00.239Z,50.32
2023-02-14T11:44:26.197Z,50.13
2023-02-14T11:47:47.970Z,50.09
2023-02-14T11:51:15.090Z,49.94
2023-02-14T11:54:39.400Z,49.68
2023-02-14T11:58:03.416Z,49.67
2023-02-14T12:01:28.638Z,49.61
2023-02-14T12:04:53.448Z,49.51
2023-02-14T12:08:15.768Z,49.56
2023-02-14T12:11:38.147Z,49.39
2023-02-14T12:15:24.737Z,49.22
2023-02-14T12:19:11.630Z,49.22
2023-02-14T12:22:41.985Z,49.18
2023-02-14T12:26:09.920Z,49.14
2023-02-14T12:29:39.490Z,49.16
2023-02-14T12:33:01.494Z,49.08
2023-02-14T12:36:49.284Z,49.08
2023-02-14T12:40:28.301Z,49.09
2023-02-14T12:43:56.433Z,49.30
2023-02-14T12:47:31.515Z,49.37
2023-02-14T12:51:05.142Z,49.32
2023-02-14T12:54:38.873Z,49.31
2023-02-14T12:58:09.690Z,49.24
2023-02-14T13:01:40.617Z,49.52
2023-02-14T13:05:23.544Z,49.59
2023-02-14T13:09:14.820Z,49.86
2023-02-14T13:12:42.907Z,50.20
2023-02-14T13:16:07.844Z,50.48
2023-02-14T13:19:36.449Z,50.57
2023-02-14T13:23:06.443Z,50.85
2023-02-14T13:26:39.161Z,50.91
2023-02-14T13:30:21.620Z,50.98
2023-02-14T13:33:54.604Z,51.05
2023-02-14T13:37:20.013Z,51.03
2023-02-14T13:40:42.615Z,51.13
2023-02-14T13:44:14.793Z,51.15
2023-02-14T13:47:47.908Z,51.30
2023-02-14T13:51:13.742Z,51.20
2023-02-14T13:54:51.962Z,50.98
2023-02-14T13:58:24.365Z,50.74
2023-02-14T14:01:49.697Z,50.43
2023-02-14T14:05:49.249Z,50.22
2023-02-14T14:09:13.007Z,50.01
2023-02-14T14:12:35.044Z,50.12
2023-02-14T14:16:27.849Z,49.75
2023-02-14T14:19:50.451Z,49.72
2023-02-14T14:23:44.498Z,49.82
2023-02-14T14:27:24.575Z,49.89
2023-02-14T14:30:46.805Z,49.78
2023-02-14T14:34:17.330Z,49.93
2023-02-14T14:37:50.459Z,49.79
2023-02-14T14:41:12.418Z,49.95
2023-02-14T14:44:36.505Z,50.02
2023-02-14T14:48:04.526Z,50.05
2023-02-14T14:51:28.491Z,50.10
2023-02-14T14:54:50.878Z,50.18
2023-02-14T14:58:31.247Z,50.26
2023-02-14T15:01:54.578Z,50.22
2023-02-14T15:05:35.157Z,50.19
2023-02-14T15:08:56.974Z,50.53
2023-02-14T15:12:41.560Z,50.53
2023-02-14T15:16:04.013Z,50.67
2023-02-14T15:19:34.860Z,50.65
2023-02-14T15:22:57.580Z,50.70
2023-02-14T15:26:27.396Z,50.70
2023-02-14T15:30:01.440Z,50.87
2023-02-14T15:33:23.298Z,50.92
2023-02-14T15:36:54.339Z,51.09
2023-02-14T15:40:23.533Z,51.19
2023-02-14T15:43:53.001Z,51.04
2023-02-14T15:47:17.215Z,50.97
2023-02-14T15:50:50.852Z,51.13
2023-02-14T15:54:23.908Z,50.94
2023-02-14T15:57:55.070Z,50.99
2023-02-14T16:01:21.735Z,51.07
2023-02-14T16:04:43.667Z,51.01
2023-02-14T16:08:28.783Z,50.91
2023-02-14T16:11:50.916Z,50.85
2023-02-14T16:15:22.529Z,50.84
2023-02-14T16:18:50.089Z,51.23
2023-02-14T16:22:38.575Z,51.16
2023-02-14T16:26:03.727Z,51.07
2023-02-14T16:29:25.833Z,51.13
2023-02-14T16:36:37.584Z,51.25
2023-02-14T16:40:02.444Z,51.15
2023-02-14T16:43:24.816Z,51.21
2023-02-14T16:46:47.024Z,51.10
2023-02-14T16:50:09.391Z,51.36
2023-02-14T16:53:31.683Z,51.30
2023-02-14T16:56:57.921Z,51.30
2023-02-14T17:00:20.115Z,51.43
2023-02-14T17:03:45.377Z,51.42
2023-02-14T17:07:07.472Z,51.53
2023-02-14T17:10:30.224Z,51.51
2023-02-14T17:13:52.459Z,51.55
2023-02-14T17:17:14.432Z,51.60
2023-02-14T17:20:36.507Z,51.47
2023-02-14T17:23:58.500Z,51.52
2023-02-14T17:27:20.304Z,51.68
2023-02-14T17:30:42.142Z,51.55
2023-02-14T17:34:04.095Z,51.66
2023-02-14T17:37:25.862Z,51.70
2023-02-14T17:40:47.841Z,51.76
2023-02-14T17:44:09.692Z,51.75
2023-02-14T17:47:31.984Z,51.80
2023-02-14T17:50:53.800Z,51.82
2023-02-14T17:54:15.706Z,51.76
2023-02-14T17:57:43.734Z,51.75
2023-02-14T18:01:11.982Z,51.97
2023-02-14T18:04:38.635Z,51.89
2023-02-14T18:08:03.615Z,52.06
2023-02-14T18:11:27.565Z,51.99
2023-02-14T18:14:49.388Z,52.14
2023-02-14T18:18:11.718Z,52.19
2023-02-14T18:21:36.240Z,52.23
2023-02-14T18:24:58.890Z,52.10
2023-02-14T18:28:22.013Z,51.92
2023-02-14T18:31:46.701Z,52.27
2023-02-14T18:35:09.688Z,52.26
2023-02-14T18:38:31.568Z,52.33
2023-02-14T18:41:53.436Z,52.36
2023-02-14T18:45:15.292Z,52.28
2023-02-14T18:48:37.653Z,52.32
2023-02-14T18:51:59.499Z,52.42
2023-02-14T18:55:21.503Z,52.66
2023-02-14T18:58:48.190Z,53.13
2023-02-14T19:02:14.138Z,53.00
2023-02-14T19:05:38.220Z,53.56
2023-02-14T19:09:07.062Z,53.47
2023-02-14T19:12:33.332Z,53.63
2023-02-14T19:15:56.644Z,53.62
2023-02-14T19:19:23.603Z,53.48
2023-02-14T19:22:45.503Z,53.46
2023-02-14T19:26:15.322Z,53.54
2023-02-14T19:29:38.432Z,53.43
2023-02-14T19:33:00.389Z,53.58
2023-02-14T19:36:23.444Z,53.66
2023-02-14T19:39:45.460Z,53.88
2023-02-14T19:43:07.684Z,55.48
2023-02-14T19:46:29.869Z,55.10
2023-02-14T19:49:51.802Z,55.36
2023-02-14T19:53:13.707Z,55.89
2023-02-14T19:56:40.740Z,56.34
2023-02-14T20:00:04.073Z,56.88
2023-02-14T20:03:33.442Z,58.41
2023-02-14T20:06:55.911Z,58.17
2023-02-14T20:10:17.939Z,57.92
2023-02-14T20:13:39.951Z,57.71
2023-02-14T20:17:04.431Z,57.76
2023-02-14T20:20:26.254Z,57.58
2023-02-14T20:23:48.089Z,57.56
2023-02-14T20:27:10.206Z,57.16
2023-02-14T20:30:32.029Z,57.30
2023-02-14T20:33:53.929Z,57.30
2023-02-14T20:37:15.952Z,57.19
2023-02-14T20:40:44.266Z,57.03
2023-02-14T20:44:09.272Z,56.95
2023-02-14T20:47:36.224Z,57.11
2023-02-14T20:51:10.472Z,56.92
2023-02-14T20:54:47.480Z,56.82
2023-02-14T20:58:11.681Z,56.60
2023-02-14T21:01:35.054Z,56.92
2023-02-14T21:05:00.326Z,56.69
2023-02-14T21:08:22.347Z,56.56
2023-02-14T21:11:44.253Z,56.61
2023-02-14T21:15:07.102Z,56.48
2023-02-14T21:18:29.178Z,56.45
2023-02-14T21:21:51.294Z,56.49
2023-02-14T21:25:13.082Z,56.50
2023-02-14T21:28:34.988Z,56.48
2023-02-14T21:31:56.948Z,56.60
2023-02-14T21:35:18.822Z,56.40
2023-02-14T21:38:41.169Z,56.39
2023-02-14T21:42:03.134Z,56.41
2023-02-14T21:45:44.174Z,56.29
2023-02-14T21:49:25.378Z,56.49
2023-02-14T21:52:47.204Z,56.17
2023-02-14T21:56:10.967Z,56.08
2023-02-14T21:59:32.723Z,56.06
2023-02-14T22:02:54.556Z,56.07
2023-02-14T22:06:17.150Z,56.16
2023-02-14T22:09:39.121Z,56.04
2023-02-14T22:13:01.119Z,56.10
2023-02-14T22:16:24.654Z,55.94
2023-02-14T22:19:47.542Z,55.86
2023-02-14T22:23:12.535Z,55.76
2023-02-14T22:26:38.902Z,55.92
2023-02-14T22:30:00.750Z,55.67
2023-02-14T22:33:24.394Z,55.91
2023-02-14T22:36:46.836Z,55.83
2023-02-14T22:40:09.113Z,55.64
2023-02-14T22:43:31.099Z,55.46
2023-02-14T22:46:52.975Z,55.54
2023-02-14T22:50:14.770Z,55.49
2023-02-14T22:53:37.075Z,55.52
2023-02-14T22:56:59.941Z,55.30
2023-02-14T23:00:22.211Z,55.54
2023-02-14T23:03:44.998Z,55.36
2023-02-14T23:07:07.331Z,55.17
2023-02-14T23:10:29.103Z,55.37
2023-02-14T23:14:09.567Z,55.09
2023-02-14T23:17:50.083Z,55.20
2023-02-14T23:21:32.411Z,55.07
2023-02-14T23:24:59.374Z,54.89
2023-02-14T23:28:21.499Z,55.18
2023-02-14T23:31:43.388Z,55.01
2023-02-14T23:35:06.531Z,54.93
2023-02-14T23:38:28.335Z,54.79
2023-02-14T23:41:50.213Z,55.05
2023-02-14T23:45:30.834Z,54.94
2023-02-14T23:48:52.990Z,54.83
2023-02-14T23:52:14.936Z,54.97
2023-02-14T23:55:36.746Z,54.76
2023-02-14T23:58:58.526Z,54.66
